createdAt,value
2019-06-01T00:00:16.867Z,98877.75
2019-06-01T00:04:24.284Z,98878.22
2019-06-01T00:08:29.980Z,98878.36
2019-06-01T00:12:35.677Z,98875.15
2019-06-01T00:16:41.994Z,98873.77
2019-06-01T00:20:48.646Z,98870.17
2019-06-01T00:24:54.366Z,98869.47
2019-06-01T00:29:00.240Z,98866.04
2019-06-01T00:33:06.053Z,98868.80
2019-06-01T00:37:11.808Z,98856.55
2019-06-01T00:41:17.485Z,98854.27
2019-06-01T00:45:23.296Z,98860.83
2019-06-01T00:49:29.071Z,98859.13
2019-06-01T00:53:34.750Z,98847.20
2019-06-01T00:57:40.411Z,98846.09
2019-06-01T01:01:46.191Z,98850.84
2019-06-01T01:05:52.749Z,98847.33
2019-06-01T01:09:58.418Z,98855.38
2019-06-01T01:14:05.791Z,98854.44
2019-06-01T01:18:12.976Z,98847.84
2019-06-01T01:22:18.769Z,98849.47
2019-06-01T01:26:24.482Z,98847.19
2019-06-01T01:30:30.290Z,98852.59
2019-06-01T01:34:35.974Z,98848.14
2019-06-01T01:38:41.666Z,98842.63
2019-06-01T01:42:48.643Z,98839.84
2019-06-01T01:46:54.909Z,98843.67
2019-06-01T01:51:00.791Z,98846.47
2019-06-01T01:55:09.517Z,98841.54
2019-06-01T01:59:15.219Z,98841.35
2019-06-01T02:03:20.968Z,98837.17
2019-06-01T02:07:26.878Z,98835.52
2019-06-01T02:11:32.579Z,98835.98
2019-06-01T02:15:40.645Z,98830.77
2019-06-01T02:19:46.389Z,98830.30
2019-06-01T02:23:52.945Z,98832.06
2019-06-01T02:27:59.270Z,98827.27
2019-06-01T02:32:06.721Z,98828.88
2019-06-01T02:36:12.559Z,98829.83
2019-06-01T02:40:20.557Z,98826.75
2019-06-01T02:44:26.371Z,98822.30
2019-06-01T02:48:32.059Z,98826.89
2019-06-01T02:52:38.281Z,98823.97
2019-06-01T02:56:44.978Z,98818.34
2019-06-01T03:01:16.282Z,98827.08
2019-06-01T03:05:22.575Z,98824.38
2019-06-01T03:09:32.193Z,98819.88
2019-06-01T03:13:42.360Z,98826.47
2019-06-01T03:17:49.454Z,98829.93
2019-06-01T03:21:59.793Z,98834.01
2019-06-01T03:26:09.514Z,98830.30
2019-06-01T03:30:18.686Z,98826.27
2019-06-01T03:34:24.403Z,98823.52
2019-06-01T03:38:30.398Z,98822.04
2019-06-01T03:42:36.213Z,98821.58
2019-06-01T03:46:41.901Z,98824.67
2019-06-01T03:50:47.731Z,98826.66
2019-06-01T03:54:53.426Z,98823.43
2019-06-01T03:58:59.099Z,98826.36
2019-06-01T04:03:05.065Z,98823.28
2019-06-01T04:07:12.467Z,98827.01
2019-06-01T04:11:18.242Z,98823.45
2019-06-01T04:15:23.926Z,98825.97
2019-06-01T04:19:29.682Z,98827.27
2019-06-01T04:23:36.436Z,98831.78
2019-06-01T04:27:42.316Z,98834.72
2019-06-01T04:31:48.523Z,98832.63
2019-06-01T04:35:54.230Z,98828.41
2019-06-01T04:39:59.884Z,98827.37
2019-06-01T04:44:07.846Z,98824.19
2019-06-01T04:48:14.686Z,98832.02
2019-06-01T04:52:20.726Z,98830.38
2019-06-01T04:56:26.404Z,98833.00
2019-06-01T05:00:32.347Z,98838.39
2019-06-01T05:04:38.022Z,98834.30
2019-06-01T05:08:43.804Z,98834.94
2019-06-01T05:12:49.632Z,98834.20
2019-06-01T05:16:55.384Z,98833.73
2019-06-01T05:21:01.183Z,98833.31
2019-06-01T05:25:09.028Z,98840.08
2019-06-01T05:29:15.690Z,98835.34
2019-06-01T05:33:36.546Z,98837.50
2019-06-01T05:37:29.081Z,98842.24
2019-06-01T05:41:34.749Z,98842.56
2019-06-01T05:45:40.473Z,98837.06
2019-06-01T05:49:46.144Z,98839.53
2019-06-01T05:53:51.993Z,98832.77
2019-06-01T05:57:57.682Z,98836.45
2019-06-01T06:02:03.350Z,98833.10
2019-06-01T06:06:09.220Z,98841.34
2019-06-01T06:10:16.023Z,98836.73
2019-06-01T06:14:22.558Z,98835.33
2019-06-01T06:18:28.342Z,98835.74
2019-06-01T06:22:34.162Z,98834.33
2019-06-01T06:26:39.854Z,98834.39
2019-06-01T06:30:45.542Z,98838.03
2019-06-01T06:34:51.213Z,98838.89
2019-06-01T06:38:56.907Z,98837.53
2019-06-01T06:43:02.595Z,98840.05
2019-06-01T06:47:08.417Z,98843.74
2019-06-01T06:52:09.045Z,98844.67
2019-06-01T06:56:15.689Z,98835.75
2019-06-01T07:00:22.660Z,98839.22
2019-06-01T07:04:28.738Z,98845.72
2019-06-01T07:08:34.504Z,98841.05
2019-06-01T07:12:40.176Z,98843.88
2019-06-01T07:16:45.899Z,98840.60
2019-06-01T07:20:51.614Z,98842.40
2019-06-01T07:24:57.329Z,98852.48
2019-06-01T07:29:03.007Z,98854.55
2019-06-01T07:33:09.790Z,98850.37
2019-06-01T07:37:15.580Z,98844.84
2019-06-01T07:41:22.463Z,98844.25
2019-06-01T07:45:29.038Z,98842.29
2019-06-01T07:49:36.357Z,98834.14
2019-06-01T07:53:42.068Z,98841.61
2019-06-01T07:57:47.747Z,98841.87
2019-06-01T08:01:53.554Z,98827.77
2019-06-01T08:05:59.305Z,98829.10
2019-06-01T08:10:07.202Z,98823.98
2019-06-01T08:14:12.955Z,98832.72
2019-06-01T08:18:18.633Z,98833.16
2019-06-01T08:22:24.318Z,98825.76
2019-06-01T08:26:30.636Z,98825.04
2019-06-01T08:30:36.417Z,98820.17
2019-06-01T08:34:42.089Z,98821.28
2019-06-01T08:38:48.363Z,98814.91
2019-06-01T08:42:54.090Z,98812.65
2019-06-01T08:46:59.950Z,98808.59
2019-06-01T08:51:05.707Z,98807.91
2019-06-01T08:55:12.080Z,98809.01
2019-06-01T08:59:17.881Z,98802.07
2019-06-01T09:03:23.600Z,98800.73
2019-06-01T09:07:29.271Z,98799.42
2019-06-01T09:11:35.377Z,98794.66
2019-06-01T09:15:41.074Z,98790.08
2019-06-01T09:19:46.785Z,98782.77
2019-06-01T09:23:52.511Z,98783.82
2019-06-01T09:27:58.281Z,98780.89
2019-06-01T09:32:04.059Z,98782.95
2019-06-01T09:36:09.819Z,98778.58
2019-06-01T09:40:17.269Z,98771.70
2019-06-01T09:44:22.973Z,98774.02
2019-06-01T09:48:29.364Z,98772.05
2019-06-01T09:52:35.596Z,98776.62
2019-06-01T09:56:41.429Z,98776.19
2019-06-01T10:00:48.713Z,98768.55
2019-06-01T10:04:54.595Z,98768.44
2019-06-01T10:09:00.266Z,98763.63
2019-06-01T10:13:07.912Z,98763.02
2019-06-01T10:17:13.673Z,98764.30
2019-06-01T10:21:19.424Z,98763.74
2019-06-01T10:25:27.801Z,98761.32
2019-06-01T10:29:34.603Z,98754.62
2019-06-01T10:33:40.372Z,98756.95
2019-06-01T10:37:46.134Z,98754.23
2019-06-01T10:41:51.826Z,98756.16
2019-06-01T10:45:57.525Z,98751.41
2019-06-01T10:50:04.367Z,98746.78
2019-06-01T10:54:10.087Z,98745.03
2019-06-01T10:58:16.042Z,98737.16
2019-06-01T11:02:21.761Z,98734.91
2019-06-01T11:06:36.661Z,98730.67
2019-06-01T11:10:36.890Z,98726.69
2019-06-01T11:14:43.329Z,98723.17
2019-06-01T11:18:49.100Z,98729.63
2019-06-01T11:22:54.941Z,98715.14
2019-06-01T11:27:00.672Z,98719.40
2019-06-01T11:31:07.067Z,98716.58
2019-06-01T11:35:13.870Z,98715.09
2019-06-01T11:39:19.673Z,98706.80
2019-06-01T11:43:26.324Z,98699.58
2019-06-01T11:47:32.078Z,98694.22
2019-06-01T11:51:39.402Z,98685.88
2019-06-01T11:55:45.573Z,98680.18
2019-06-01T11:59:51.351Z,98673.23
2019-06-01T12:03:57.169Z,98671.48
2019-06-01T12:08:02.928Z,98669.23
2019-06-01T12:12:08.647Z,98661.66
2019-06-01T12:16:14.481Z,98665.35
2019-06-01T12:20:21.075Z,98668.63
2019-06-01T12:24:26.924Z,98658.98
2019-06-01T12:28:32.783Z,98650.75
2019-06-01T12:32:39.735Z,98638.64
2019-06-01T12:36:46.429Z,98641.25
2019-06-01T12:40:52.231Z,98626.70
2019-06-01T12:44:58.103Z,98623.47
2019-06-01T12:49:03.794Z,98620.71
2019-06-01T12:53:09.471Z,98617.23
2019-06-01T12:57:15.249Z,98620.73
2019-06-01T13:01:21.055Z,98618.72
2019-06-01T13:05:26.906Z,98613.03
2019-06-01T13:09:33.591Z,98601.41
2019-06-01T13:13:39.294Z,98601.87
2019-06-01T13:17:45.330Z,98602.69
2019-06-01T13:21:51.748Z,98588.59
2019-06-01T13:25:57.482Z,98583.44
2019-06-01T13:30:04.378Z,98576.33
2019-06-01T13:34:10.069Z,98576.81
2019-06-01T13:38:15.859Z,98570.46
2019-06-01T13:42:21.497Z,98571.92
2019-06-01T13:46:27.272Z,98566.47
2019-06-01T13:50:32.961Z,98571.77
2019-06-01T13:54:40.206Z,98559.40
2019-06-01T13:58:46.324Z,98557.34
2019-06-01T14:02:55.519Z,98549.70
2019-06-01T14:06:59.592Z,98545.05
2019-06-01T14:11:08.498Z,98540.09
2019-06-01T14:15:15.092Z,98538.25
2019-06-01T14:19:21.606Z,98535.95
2019-06-01T14:23:27.349Z,98528.62
2019-06-01T14:31:38.791Z,98517.88
2019-06-01T14:35:44.725Z,98513.48
2019-06-01T14:39:50.859Z,98507.87
2019-06-01T14:43:57.780Z,98501.87
2019-06-01T14:48:03.488Z,98508.19
2019-06-01T14:52:09.208Z,98512.38
2019-06-01T14:56:14.884Z,98501.04
2019-06-01T15:00:22.202Z,98497.20
2019-06-01T15:04:28.028Z,98492.37
2019-06-01T15:08:33.710Z,98490.55
2019-06-01T15:12:39.637Z,98487.94
2019-06-01T15:16:46.362Z,98489.30
2019-06-01T15:20:52.071Z,98485.78
2019-06-01T15:24:58.748Z,98489.95
2019-06-01T15:29:04.897Z,98486.78
2019-06-01T15:33:10.603Z,98484.74
2019-06-01T15:37:16.302Z,98486.02
2019-06-01T15:41:22.074Z,98478.79
2019-06-01T15:45:27.839Z,98471.66
2019-06-01T15:49:33.548Z,98470.98
2019-06-01T15:53:39.314Z,98468.05
2019-06-01T15:57:45.083Z,98466.12
2019-06-01T16:01:50.852Z,98461.81
2019-06-01T16:05:57.062Z,98463.86
2019-06-01T16:10:06.565Z,98462.98
2019-06-01T16:14:10.605Z,98462.75
2019-06-01T16:18:17.908Z,98458.17
2019-06-01T16:22:23.539Z,98454.89
2019-06-01T16:26:29.279Z,98446.08
2019-06-01T16:30:34.957Z,98448.56
2019-06-01T16:34:40.788Z,98445.86
2019-06-01T16:38:46.471Z,98443.39
2019-06-01T16:42:52.163Z,98437.56
2019-06-01T16:46:57.944Z,98435.42
2019-06-01T16:51:04.157Z,98437.91
2019-06-01T16:55:11.761Z,98432.08
2019-06-01T16:59:17.665Z,98434.36
2019-06-01T17:03:23.428Z,98426.59
2019-06-01T17:07:29.138Z,98419.92
2019-06-01T17:11:34.824Z,98425.31
2019-06-01T17:15:40.751Z,98428.02
2019-06-01T17:19:47.615Z,98428.76
2019-06-01T17:23:53.462Z,98430.61
2019-06-01T17:28:00.118Z,98427.14
2019-06-01T17:32:21.540Z,98426.03
2019-06-01T17:40:36.762Z,98424.50
2019-06-01T17:44:31.798Z,98414.80
2019-06-01T17:48:37.779Z,98414.88
2019-06-01T17:52:43.896Z,98418.92
2019-06-01T17:56:49.674Z,98418.45
2019-06-01T18:00:56.537Z,98419.91
2019-06-01T18:05:03.948Z,98419.78
2019-06-01T18:09:12.150Z,98419.38
2019-06-01T18:13:17.933Z,98425.39
2019-06-01T18:17:23.840Z,98420.69
2019-06-01T18:21:33.362Z,98426.34
2019-06-01T18:25:37.030Z,98415.55
2019-06-01T18:29:48.451Z,98414.36
2019-06-01T18:33:53.523Z,98415.06
2019-06-01T18:37:59.470Z,98412.53
2019-06-01T18:42:06.283Z,98407.72
2019-06-01T18:46:12.253Z,98414.58
2019-06-01T18:50:19.290Z,98411.00
2019-06-01T18:54:25.110Z,98408.22
2019-06-01T18:58:30.826Z,98412.38
2019-06-01T19:02:36.735Z,98413.91
2019-06-01T19:06:42.572Z,98415.34
2019-06-01T19:10:49.343Z,98417.13
2019-06-01T19:14:55.454Z,98416.92
2019-06-01T19:19:01.203Z,98424.28
2019-06-01T19:23:07.061Z,98432.86
2019-06-01T19:27:12.899Z,98426.81
2019-06-01T19:31:18.761Z,98437.22
2019-06-01T19:35:24.505Z,98433.45
2019-06-01T19:39:32.668Z,98445.03
2019-06-01T19:43:38.417Z,98446.63
2019-06-01T19:47:44.241Z,98451.73
2019-06-01T19:51:49.941Z,98442.59
2019-06-01T19:55:55.620Z,98453.73
2019-06-01T20:00:01.300Z,98456.91
2019-06-01T20:04:07.208Z,98463.23
2019-06-01T20:08:14.212Z,98460.46
2019-06-01T20:12:20.584Z,98458.47
2019-06-01T20:16:26.554Z,98454.67
2019-06-01T20:20:32.209Z,98463.53
2019-06-01T20:24:38.002Z,98461.24
2019-06-01T20:28:43.758Z,98458.84
2019-06-01T20:32:49.456Z,98469.35
2019-06-01T20:36:55.147Z,98469.72
2019-06-01T20:41:00.849Z,98468.16
2019-06-01T20:45:10.605Z,98465.25
2019-06-01T20:49:16.835Z,98464.17
2019-06-01T20:53:23.263Z,98468.97
2019-06-01T20:57:29.066Z,98470.36
2019-06-01T21:01:34.781Z,98462.02
2019-06-01T21:05:40.990Z,98463.70
2019-06-01T21:09:47.306Z,98465.01
2019-06-01T21:13:54.064Z,98469.98
2019-06-01T21:17:59.760Z,98473.86
2019-06-01T21:22:06.121Z,98464.69
2019-06-01T21:26:11.846Z,98470.85
2019-06-01T21:30:18.803Z,98469.81
2019-06-01T21:34:25.590Z,98474.27
2019-06-01T21:38:31.372Z,98477.50
2019-06-01T21:42:38.496Z,98476.56
2019-06-01T21:46:44.753Z,98473.44
2019-06-01T21:50:50.705Z,98471.22
2019-06-01T21:54:56.420Z,98470.47
2019-06-01T21:59:03.134Z,98470.43
2019-06-01T22:03:09.473Z,98461.83
2019-06-01T22:07:15.276Z,98468.37
2019-06-01T22:11:21.554Z,98466.23
2019-06-01T22:15:28.034Z,98470.63
2019-06-01T22:19:33.825Z,98472.13
2019-06-01T22:23:39.545Z,98473.84
2019-06-01T22:27:45.331Z,98469.28
2019-06-01T22:31:51.055Z,98461.95
2019-06-01T22:35:56.750Z,98458.82
2019-06-01T22:40:02.824Z,98458.58
2019-06-01T22:44:08.856Z,98457.94
2019-06-01T22:48:14.693Z,98455.99
2019-06-01T22:52:20.969Z,98455.59
2019-06-01T22:56:27.915Z,98459.34
2019-06-01T23:00:33.709Z,98455.17
2019-06-01T23:04:39.484Z,98458.88
2019-06-01T23:08:45.452Z,98457.66
2019-06-01T23:12:51.214Z,98453.22
2019-06-01T23:16:56.917Z,98450.80
2019-06-01T23:21:02.633Z,98447.63
2019-06-01T23:25:09.214Z,98448.12
2019-06-01T23:29:14.961Z,98440.03
2019-06-01T23:33:20.696Z,98444.12
2019-06-01T23:37:26.734Z,98435.25
2019-06-01T23:41:32.982Z,98432.17
2019-06-01T23:45:39.834Z,98432.83
2019-06-01T23:49:45.620Z,98421.28
2019-06-01T23:53:51.488Z,98417.55
2019-06-01T23:57:57.202Z,98421.92
